Latest Weather Observations for Kyabram

IDV60801

Issued at 6:32 pm EDT Tuesday 21 February 2017 (issued every 30 minutes, with the page automatically refreshed every 10 minutes)

About weather observations | Map of weather stations | Latest weather observations for VIC | Other Formats
Station Details ID: 080091 Name: KYABRAM Lat: -36.34 Lon: 145.06 Height: 105.0 m
Data from the previous 72 hours. | See also: Recent months at Kyabram
Date/Time
EDT
Temp
°C
App
Temp
°C
Dew
Point
°C
Rel
Hum
%
Delta-T
°C
Wind Press
QNH
hPa
Press
MSL
hPa
Rain since
9am
mm
Dir  Spd
km/h
Gust
km/h
Spd
kts
Gust
kts
21/06:30pm 24.7 23.3 3.4 25 10.5 CALM 0 0 0 0 - - 0.0
21/06:00pm 25.0 23.5 3.0 24 10.8 CALM 0 0 0 0 - - 0.0
21/05:30pm 25.2 23.8 3.8 25 10.6 CALM 0 0 0 0 - - 0.0
21/05:00pm 24.7 23.5 4.5 27 10.1 CALM 0 2 0 1 - - 0.0
21/04:30pm 25.1 22.0 3.7 25 10.6 W 9 24 5 13 - - 0.0
21/04:00pm 25.2 22.1 3.8 25 10.6 SW 9 15 5 8 - - 0.0
21/03:30pm 24.5 21.6 4.8 28 9.9 ESE 9 15 5 8 - - 0.0
21/03:00pm 24.6 23.6 5.4 29 9.8 CALM 0 0 0 0 - - 0.0
21/02:30pm 23.8 21.4 5.2 30 9.4 NNW 7 17 4 9 - - 0.0
21/02:00pm 23.8 21.6 5.2 30 9.4 NW 6 13 3 7 - - 0.0
21/01:30pm 24.0 21.7 5.8 31 9.3 NW 7 17 4 9 - - 0.0
21/01:00pm 22.7 20.0 5.6 33 8.6 NNW 9 15 5 8 - - 0.0
21/12:30pm 22.6 20.9 6.0 34 8.4 ENE 4 13 2 7 - - 0.0
21/12:00pm 21.5 20.2 5.8 36 7.9 SSE 2 13 1 7 - - 0.0
21/11:30am 20.5 18.2 5.7 38 7.4 SE 7 13 4 7 - - 0.0
21/11:00am 20.7 19.3 7.3 42 6.9 ESE 4 17 2 9 - - 0.0
21/10:30am 19.4 17.6 7.2 45 6.2 E 6 13 3 7 - - 0.0
21/10:00am 18.2 17.3 9.3 56 4.7 ESE 4 11 2 6 - - 0.0
21/09:30am 16.1 14.8 9.8 66 3.3 SE 7 13 4 7 - - 0.0
21/09:00am 14.0 14.2 10.6 80 1.8 CALM 0 0 0 0 - - 0.0
21/08:30am 11.7 11.6 9.6 87 1.1 CALM 0 0 0 0 - - 0.0
21/08:00am 10.0 9.8 9.1 94 0.4 CALM 0 0 0 0 - - 0.0
21/07:30am 8.0 7.5 7.7 98 0.1 CALM 0 0 0 0 - - 0.0
21/07:00am 7.3 6.6 6.9 97 0.2 CALM 0 0 0 0 - - 0.0
21/06:30am 7.7 7.1 7.3 97 0.2 CALM 0 0 0 0 - - 0.0
21/06:00am 7.7 7.0 7.1 96 0.3 CALM 0 0 0 0 - - 0.0
21/05:30am 7.9 7.2 7.1 95 0.4 CALM 0 0 0 0 - - 0.0
21/05:00am 8.1 7.4 7.0 93 0.5 CALM 0 0 0 0 - - 0.0
21/04:30am 8.4 7.8 7.3 93 0.5 CALM 0 0 0 0 - - 0.0
21/04:00am 8.8 8.3 7.9 94 0.4 CALM 0 0 0 0 - - 0.0
21/03:30am 9.5 9.1 8.3 92 0.6 CALM 0 0 0 0 - - 0.0
21/03:00am 9.3 8.8 7.9 91 0.7 CALM 0 0 0 0 - - 0.0
21/02:30am 10.0 9.5 7.8 86 1.1 CALM 0 0 0 0 - - 0.0
21/02:00am 10.3 9.8 7.7 84 1.3 CALM 0 0 0 0 - - 0.0
21/01:30am 11.0 10.6 8.1 82 1.4 CALM 0 0 0 0 - - 0.0
21/01:00am 11.6 11.1 7.9 78 1.8 CALM 0 0 0 0 - - 0.0
21/12:30am 11.9 11.4 8.0 77 1.9 CALM 0 0 0 0 - - 0.0
21/12:00am 11.9 11.3 7.6 75 2.1 CALM 0 0 0 0 - - 0.0
 
Date/Time
EDT
Temp
°C
App
Temp
°C
Dew
Point
°C
Rel
Hum
%
Delta-T
°C
Wind Press
QNH
hPa
Press
MSL
hPa
Rain since
9am
mm
Dir  Spd
km/h
Gust
km/h
Spd
kts
Gust
kts
20/11:30pm 12.3 11.6 6.8 69 2.6 CALM 0 0 0 0 - - 0.0
20/11:00pm 12.6 11.7 6.0 64 3.1 CALM 0 0 0 0 - - 0.0
20/10:30pm 13.5 12.5 5.7 59 3.7 CALM 0 0 0 0 - - 0.0
20/10:00pm 14.9 13.9 5.4 53 4.5 CALM 0 2 0 1 - - 0.0
20/09:30pm 16.2 15.0 4.6 46 5.5 CALM 0 0 0 0 - - 0.0
20/09:00pm 16.5 15.4 4.9 46 5.5 CALM 0 0 0 0 - - 0.0
20/08:30pm 17.6 16.4 4.6 42 6.2 CALM 0 0 0 0 - - 0.0
20/08:00pm 19.1 17.6 4.8 39 6.9 SW 2 9 1 5 - - 0.0
20/07:30pm 20.2 16.4 3.9 34 7.8 SW 13 20 7 11 - - 0.0
20/07:00pm 21.6 18.2 4.2 32 8.5 SW 11 20 6 11 - - 0.0
20/06:30pm 21.2 17.9 4.7 34 8.1 SW 11 19 6 10 - - 0.0
20/06:00pm 22.6 19.3 4.6 31 8.9 SW 11 20 6 11 - - 0.0
20/05:30pm 22.1 18.4 4.2 31 8.8 SW 13 22 7 12 - - 0.0
20/05:00pm 21.9 18.2 4.5 32 8.6 WSW 13 24 7 13 - - 0.0
20/04:30pm 22.8 19.2 4.8 31 9.0 W 13 26 7 14 - - 0.0
20/04:00pm 21.7 18.0 4.7 33 8.4 W 13 19 7 10 - - 0.0
20/03:30pm 20.5 16.5 4.9 36 7.7 SW 15 30 8 16 - - 0.0
20/03:00pm 21.0 17.0 5.0 35 7.9 WSW 15 24 8 13 - - 0.0
20/02:30pm 20.7 17.2 5.5 37 7.6 WSW 13 20 7 11 - - 0.0
20/02:00pm 19.8 16.5 7.9 46 6.2 WSW 15 32 8 17 - - 0.0
20/01:30pm 19.4 16.1 6.2 42 6.6 WSW 13 24 7 13 - - 0.0
20/01:00pm 18.2 15.2 7.6 50 5.4 WSW 13 19 7 10 - - 0.0
20/12:30pm 18.0 14.8 8.6 54 4.9 WSW 15 30 8 16 - - 0.0
20/12:00pm 16.8 13.6 8.5 58 4.3 SW 15 22 8 12 - - 0.0
20/11:30am 16.2 13.3 8.2 59 4.1 WSW 13 24 7 13 - - 0.0
20/11:00am 15.9 12.4 8.9 63 3.6 WSW 17 26 9 14 - - 0.0
20/10:30am 14.9 11.5 9.1 68 3.0 WSW 17 28 9 15 - - 0.0
20/10:00am 14.4 11.5 9.6 73 2.5 WSW 15 24 8 13 - - 0.0
20/09:30am 13.4 10.9 9.8 79 1.9 W 13 26 7 14 - - 0.0
20/09:00am 11.8 8.6 8.6 81 1.6 W 15 22 8 12 - - 4.6
20/08:30am 10.8 8.0 8.7 87 1.0 W 13 20 7 11 - - 4.6
20/08:00am 9.4 7.2 7.8 90 0.8 WNW 9 17 5 9 - - 4.6
20/07:30am 8.3 5.9 7.2 93 0.5 WNW 9 17 5 9 - - 4.6
20/07:00am 7.4 5.3 6.5 94 0.4 WNW 7 13 4 7 - - 4.6
20/06:30am 7.2 5.2 6.3 94 0.4 WNW 6 9 3 5 - - 4.6
20/06:00am 7.5 5.4 6.6 94 0.4 WNW 7 13 4 7 - - 4.6
20/05:30am 7.5 5.4 6.6 94 0.4 W 7 15 4 8 - - 4.6
20/05:00am 7.3 5.3 6.2 93 0.5 WNW 6 9 3 5 - - 4.6
20/04:30am 7.6 5.5 6.5 93 0.5 W 7 13 4 7 - - 4.4
20/04:00am 7.6 5.5 6.7 94 0.4 W 7 11 4 6 - - 4.4
20/03:30am 7.5 5.5 6.4 93 0.5 WNW 6 7 3 4 - - 4.4
20/03:00am 7.7 5.8 6.5 92 0.6 W 6 9 3 5 - - 4.4
20/02:30am 8.1 6.1 6.9 92 0.6 WNW 7 9 4 5 - - 4.4
20/02:00am 8.3 6.4 6.9 91 0.7 W 6 11 3 6 - - 4.4
20/01:30am 8.4 6.5 7.5 94 0.4 W 7 9 4 5 - - 4.4
20/01:00am 8.3 6.6 7.5 95 0.4 W 6 9 3 5 - - 4.4
20/12:30am 8.7 7.1 8.1 96 0.3 W 6 9 3 5 - - 4.4
20/12:00am 8.9 8.4 8.0 94 0.4 CALM 0 0 0 0 - - 4.4
 
Date/Time
EDT
Temp
°C
App
Temp
°C
Dew
Point
°C
Rel
Hum
%
Delta-T
°C
Wind Press
QNH
hPa
Press
MSL
hPa
Rain since
9am
mm
Dir  Spd
km/h
Gust
km/h
Spd
kts
Gust
kts
19/11:30pm 9.1 7.5 8.0 93 0.5 W 6 9 3 5 - - 4.4
19/11:00pm 9.6 8.5 8.5 93 0.5 WSW 4 7 2 4 - - 4.4
19/10:30pm 9.6 8.0 8.0 90 0.8 WNW 6 9 3 5 - - 4.4
19/10:00pm 10.4 8.7 8.5 88 0.9 W 7 9 4 5 - - 4.4
19/09:30pm 11.0 9.4 8.9 87 1.0 W 7 9 4 5 - - 4.4
19/09:00pm 10.9 9.1 8.1 83 1.4 WSW 7 11 4 6 - - 4.4
19/08:30pm 11.4 8.5 8.1 80 1.6 SSW 13 20 7 11 - - 4.4
19/08:00pm 12.3 10.2 9.9 85 1.2 WSW 11 20 6 11 - - 3.4
19/07:30pm 12.3 11.2 10.5 89 0.9 SW 7 11 4 6 - - 3.2
19/07:00pm 13.4 9.4 8.9 74 2.3 SSW 20 28 11 15 - - 2.4
19/06:30pm 15.4 12.2 8.6 64 3.5 SW 15 22 8 12 - - 2.0
19/06:00pm 15.4 12.1 9.7 69 3.0 SW 17 26 9 14 - - 2.0
19/05:30pm 14.6 12.9 12.5 87 1.2 SW 13 24 7 13 - - 2.0
19/05:10pm 13.7 9.5 9.9 78 2.0 W 22 48 12 26 - - 1.4
19/05:09pm 14.0 10.3 10.0 77 2.1 W 20 48 11 26 - - 1.0
19/05:00pm 17.2 13.5 8.1 55 4.7 SW 17 30 9 16 - - 0.0
19/04:30pm 17.5 13.6 8.6 56 4.6 WSW 19 33 10 18 - - 0.0
19/04:00pm 20.3 15.3 3.5 33 8.0 WSW 19 35 10 19 - - 0.0
19/03:30pm 20.1 15.5 3.8 34 7.8 W 17 30 9 16 - - 0.0
19/03:00pm 22.1 17.7 4.7 32 8.6 NW 17 28 9 15 - - 0.0
19/02:30pm 19.3 15.2 4.3 37 7.2 WNW 15 28 8 15 - - 0.0
19/02:00pm 19.6 15.1 4.1 36 7.4 WNW 17 30 9 16 - - 0.0
19/01:30pm 20.4 16.1 5.2 37 7.5 W 17 28 9 15 - - 0.0
19/01:00pm 18.5 14.5 5.0 41 6.5 W 15 24 8 13 - - 0.0
19/12:30pm 18.4 15.3 5.6 43 6.3 WNW 11 19 6 10 - - 0.0
19/12:00pm 18.3 14.8 5.5 43 6.3 NW 13 20 7 11 - - 0.0
19/11:30am 18.6 15.3 6.4 45 6.1 NW 13 20 7 11 - - 0.0
19/11:00am 17.0 13.3 4.3 43 6.0 WNW 13 20 7 11 - - 0.0
19/10:30am 16.5 13.7 5.2 47 5.4 W 9 19 5 10 - - 0.0
19/10:00am 15.8 13.2 6.3 53 4.6 WNW 9 17 5 9 - - 0.0
19/09:30am 14.5 11.5 6.1 57 4.0 NW 11 19 6 10 - - 0.0
19/09:00am 13.3 10.8 6.6 64 3.2 W 9 17 5 9 - - 0.0
19/08:30am 11.4 9.2 6.3 71 2.4 W 7 13 4 7 - - 0.0
19/08:00am 9.9 7.7 6.1 77 1.8 W 7 11 4 6 - - 0.0
19/07:30am 7.9 7.0 5.9 87 0.9 CALM 0 0 0 0 - - 0.0
19/07:00am 7.2 6.1 5.3 88 0.8 CALM 0 0 0 0 - - 0.0
19/06:30am 7.7 6.7 5.5 86 1.0 CALM 0 0 0 0 - - 0.0
19/06:00am 8.0 7.0 5.5 84 1.1 CALM 0 0 0 0 - - 0.0
19/05:30am 7.5 6.4 5.1 85 1.1 CALM 0 0 0 0 - - 0.0
19/05:00am 8.3 7.3 5.8 84 1.1 CALM 0 0 0 0 - - 0.0
19/04:30am 8.4 7.4 5.5 82 1.3 CALM 0 0 0 0 - - 0.0
19/04:00am 9.2 8.2 5.6 78 1.6 CALM 0 0 0 0 - - 0.0
19/03:30am 10.0 7.9 6.0 76 1.9 SW 6 7 3 4 - - 0.0
19/03:00am 9.7 8.8 6.1 78 1.7 CALM 0 0 0 0 - - 0.0
19/02:30am 9.3 8.2 5.3 76 1.8 CALM 0 0 0 0 - - 0.0
19/02:00am 10.7 9.7 5.7 71 2.3 CALM 0 0 0 0 - - 0.0
19/01:30am 11.1 10.0 5.2 67 2.7 CALM 0 0 0 0 - - 0.0
19/01:00am 12.3 10.0 5.5 63 3.2 SSW 7 11 4 6 - - 0.0
19/12:30am 12.6 10.5 5.8 63 3.2 SW 6 9 3 5 - - 0.0
19/12:00am 12.0 9.7 5.0 62 3.2 SW 6 7 3 4 - - 0.0
 
Date/Time
EDT
Temp
°C
App
Temp
°C
Dew
Point
°C
Rel
Hum
%
Delta-T
°C
Wind Press
QNH
hPa
Press
MSL
hPa
Rain since
9am
mm
Dir  Spd
km/h
Gust
km/h
Spd
kts
Gust
kts
18/11:30pm 13.0 10.5 4.7 57 3.8 SW 7 11 4 6 - - 0.0
18/11:00pm 14.1 10.8 4.7 53 4.4 SSW 11 17 6 9 - - 0.0
18/10:30pm 14.4 11.1 4.7 52 4.5 SSW 11 15 6 8 - - 0.0
18/10:00pm 14.5 12.0 4.5 51 4.7 S 7 9 4 5 - - 0.0
18/09:30pm 15.9 13.1 3.0 42 5.9 S 7 9 4 5 - - 0.0
18/09:00pm 16.0 12.5 1.0 36 6.6 SSW 9 13 5 7 - - 0.0
18/08:30pm 17.0 14.7 0.6 33 7.2 SW 2 9 1 5 - - 0.0
18/08:00pm 18.5 14.9 0.6 30 7.9 SW 9 13 5 7 - - 0.0
18/07:30pm 19.5 15.4 -0.5 26 8.8 SW 11 24 6 13 - - 0.0
18/07:00pm 20.2 15.6 -1.0 24 9.2 WSW 13 22 7 12 - - 0.0

Other Formats:

Comma delimited format used in spreadsheet applications
http://www.bom.gov.au/fwo/IDV60801/IDV60801.95833.axf

JavaScript Object Notation format (JSON) in row-major order
http://www.bom.gov.au/fwo/IDV60801/IDV60801.95833.json